Time;durP1;ratioP1;P1;durP2;ratioP2;P2;SDS_P1;SDS_P2;PMS_P1;PMS_P2;Temp;Humidity;BMP_temperature;BMP_pressure;BME280_temperature;BME280_humidity;BME280_pressure;Samples;Min_cycle;Max_cycle;Signal;HPM_P1;HPM_P2
2022/03/01 00:00:33;;;;;;;6.17;3.37;;;;;;;;;;5038041;28;20649;-70
2022/03/01 00:03:01;;;;;;;5.53;3.87;;;;;;;;;;5035474;28;20223;-70
2022/03/01 00:05:29;;;;;;;10.30;4.43;;;;;;;;;;5038240;28;20259;-70
2022/03/01 00:07:57;;;;;;;4.40;4.00;;;;;;;;;;5036599;28;20242;-70
2022/03/01 00:10:25;;;;;;;12.47;3.90;;;;;;;;;;5036237;28;20239;-70
2022/03/01 00:12:54;;;;;;;7.93;4.00;;;;;;;;;;5036970;28;20318;-70
2022/03/01 00:15:22;;;;;;;6.37;3.87;;;;;;;;;;5038056;28;20310;-70
2022/03/01 00:17:51;;;;;;;9.80;3.77;;;;;;;;;;5037741;28;20203;-70
2022/03/01 00:20:19;;;;;;;9.93;3.23;;;;;;;;;;5038055;28;20234;-70
2022/03/01 00:22:47;;;;;;;5.27;3.17;;;;;;;;;;5037306;28;20266;-70
2022/03/01 00:25:15;;;;;;;8.00;3.70;;;;;;;;;;5034026;28;20303;-70
2022/03/01 00:27:42;;;;;;;6.40;4.03;;;;;;;;;;5017626;28;20236;-70
2022/03/01 00:30:13;;;;;;;6.90;3.30;;;;;;;;;;5018073;28;20240;-69
2022/03/01 00:32:46;;;;;;;6.83;3.63;;;;;;;;;;5017726;28;20595;-67
2022/03/01 00:35:14;;;;;;;8.33;3.70;;;;;;;;;;5017919;28;20232;-68
2022/03/01 00:37:42;;;;;;;5.83;3.73;;;;;;;;;;5017870;28;20327;-66
2022/03/01 00:40:11;;;;;;;8.20;3.80;;;;;;;;;;5018225;28;20239;-68
2022/03/01 00:42:40;;;;;;;6.20;3.93;;;;;;;;;;5017686;28;20671;-68
2022/03/01 00:45:08;;;;;;;7.40;4.17;;;;;;;;;;5017782;28;20205;-68
2022/03/01 00:47:38;;;;;;;6.07;3.60;;;;;;;;;;5023413;28;20239;-68
2022/03/01 00:50:06;;;;;;;5.57;3.80;;;;;;;;;;5037641;28;20218;-68
2022/03/01 00:52:34;;;;;;;6.47;3.77;;;;;;;;;;5037528;28;20302;-68
2022/03/01 00:55:06;;;;;;;5.87;3.90;;;;;;;;;;5037258;28;20208;-68
2022/03/01 00:57:34;;;;;;;4.13;3.23;;;;;;;;;;5037586;28;20250;-68
2022/03/01 01:00:02;;;;;;;5.43;3.90;;;;;;;;;;5037496;28;20274;-68
2022/03/01 01:02:30;;;;;;;5.33;4.37;;;;;;;;;;5025097;28;20256;-68
2022/03/01 01:05:00;;;;;;;9.20;4.17;;;;;;;;;;5028124;28;20617;-68
2022/03/01 01:07:28;;;;;;;6.57;4.00;;;;;;;;;;5016672;28;20236;-69
2022/03/01 01:09:56;;;;;;;4.80;3.80;;;;;;;;;;5015187;28;20291;-68
2022/03/01 01:12:24;;;;;;;8.60;3.80;;;;;;;;;;5017315;28;20239;-69
2022/03/01 01:14:52;;;;;;;7.63;3.50;;;;;;;;;;5017487;28;20243;-68
2022/03/01 01:17:20;;;;;;;5.73;3.60;;;;;;;;;;5031096;28;20258;-68
2022/03/01 01:19:48;;;;;;;4.93;3.27;;;;;;;;;;5037056;28;20235;-68
2022/03/01 01:25:15;;;;;;;7.67;3.70;;;;;;;;;;4953139;29;20323;-68
2022/03/01 01:27:44;;;;;;;6.17;4.10;;;;;;;;;;4999646;28;20702;-68
2022/03/01 01:30:16;;;;;;;9.00;3.73;;;;;;;;;;5017139;28;20204;-68
2022/03/01 01:32:44;;;;;;;6.90;3.70;;;;;;;;;;5017045;28;20688;-68
2022/03/01 01:35:13;;;;;;;6.87;3.50;;;;;;;;;;5017149;28;20311;-68
2022/03/01 01:37:43;;;;;;;8.03;3.77;;;;;;;;;;5017110;28;20576;-68
2022/03/01 01:40:13;;;;;;;7.73;4.40;;;;;;;;;;5016992;28;20235;-68
2022/03/01 01:42:41;;;;;;;7.63;3.80;;;;;;;;;;5017266;28;20270;-68
2022/03/01 01:45:09;;;;;;;5.03;3.70;;;;;;;;;;5016857;28;20739;-68
2022/03/01 01:47:46;;;;;;;6.13;3.10;;;;;;;;;;5025119;28;20230;-68
2022/03/01 01:50:14;;;;;;;4.80;3.40;;;;;;;;;;5040572;28;20211;-68
2022/03/01 01:52:44;;;;;;;6.47;3.80;;;;;;;;;;5040692;28;20246;-68
2022/03/01 01:55:12;;;;;;;6.40;3.80;;;;;;;;;;5040187;28;20231;-68
2022/03/01 01:57:40;;;;;;;6.33;4.17;;;;;;;;;;5040429;28;20310;-67
2022/03/01 02:00:10;;;;;;;4.17;3.30;;;;;;;;;;5040612;28;20234;-68
2022/03/01 02:02:39;;;;;;;7.60;3.80;;;;;;;;;;5034069;28;20632;-68
2022/03/01 02:05:07;;;;;;;9.20;4.17;;;;;;;;;;5031304;28;20604;-68
2022/03/01 02:07:35;;;;;;;6.87;4.23;;;;;;;;;;5018917;28;20607;-68
2022/03/01 02:10:07;;;;;;;5.97;4.47;;;;;;;;;;5018812;28;20810;-68
2022/03/01 02:12:36;;;;;;;6.77;3.73;;;;;;;;;;5019806;28;20231;-68
2022/03/01 02:15:04;;;;;;;8.90;4.13;;;;;;;;;;5020439;28;20287;-68
2022/03/01 02:17:32;;;;;;;7.00;3.90;;;;;;;;;;5036135;28;20219;-68
2022/03/01 02:20:02;;;;;;;5.73;3.47;;;;;;;;;;5040042;28;20502;-68
2022/03/01 02:22:34;;;;;;;8.33;4.30;;;;;;;;;;5040168;28;20275;-68
2022/03/01 02:25:02;;;;;;;9.27;4.57;;;;;;;;;;5037632;28;20790;-68
2022/03/01 02:27:30;;;;;;;8.30;4.33;;;;;;;;;;5020126;28;20262;-68
2022/03/01 02:29:58;;;;;;;7.13;3.67;;;;;;;;;;5019819;28;20243;-67
2022/03/01 02:32:27;;;;;;;5.63;3.37;;;;;;;;;;5020228;28;20213;-67
2022/03/01 02:34:55;;;;;;;6.37;4.10;;;;;;;;;;5019892;28;20316;-67
2022/03/01 02:37:23;;;;;;;8.20;6.07;;;;;;;;;;5019481;28;20296;-67
2022/03/01 02:39:53;;;;;;;8.30;4.77;;;;;;;;;;5037077;28;20439;-67
2022/03/01 02:42:21;;;;;;;5.90;3.93;;;;;;;;;;5039283;28;20493;-67
2022/03/01 02:44:49;;;;;;;9.70;4.73;;;;;;;;;;5039392;28;20259;-67
2022/03/01 02:47:17;;;;;;;9.60;4.47;;;;;;;;;;5039157;28;20973;-67
2022/03/01 02:49:45;;;;;;;4.97;4.00;;;;;;;;;;5039730;28;20268;-67
2022/03/01 02:52:13;;;;;;;6.40;3.77;;;;;;;;;;5039559;28;20466;-67
2022/03/01 02:54:41;;;;;;;7.13;4.50;;;;;;;;;;5038649;28;20530;-67
2022/03/01 02:57:11;;;;;;;8.43;4.30;;;;;;;;;;5039475;28;20543;-67
2022/03/01 02:59:39;;;;;;;6.83;4.10;;;;;;;;;;5038911;28;20203;-67
2022/03/01 03:02:09;;;;;;;7.40;4.00;;;;;;;;;;5035755;28;20482;-67
2022/03/01 03:04:37;;;;;;;7.77;4.20;;;;;;;;;;5039095;28;20490;-67
2022/03/01 03:07:05;;;;;;;7.40;4.33;;;;;;;;;;5039147;28;20502;-67
2022/03/01 03:09:34;;;;;;;5.70;4.00;;;;;;;;;;5038685;28;20549;-67
2022/03/01 03:12:02;;;;;;;8.10;4.50;;;;;;;;;;5038981;28;20327;-67
2022/03/01 03:14:32;;;;;;;9.20;4.70;;;;;;;;;;5039093;28;20234;-67
2022/03/01 03:17:00;;;;;;;8.97;4.40;;;;;;;;;;5038837;28;21061;-67
2022/03/01 03:19:28;;;;;;;6.10;4.87;;;;;;;;;;5038977;28;20481;-67
2022/03/01 03:21:56;;;;;;;7.27;4.00;;;;;;;;;;5039121;28;20290;-67
2022/03/01 03:24:24;;;;;;;7.47;4.90;;;;;;;;;;5038400;28;20920;-67
2022/03/01 03:26:52;;;;;;;8.30;4.73;;;;;;;;;;5021906;28;20541;-67
2022/03/01 03:29:20;;;;;;;8.07;4.27;;;;;;;;;;5018767;28;20478;-67
2022/03/01 03:31:54;;;;;;;9.03;4.20;;;;;;;;;;5019152;28;20443;-67
2022/03/01 03:34:22;;;;;;;6.43;4.53;;;;;;;;;;5018849;28;20527;-67
2022/03/01 03:36:51;;;;;;;7.70;5.17;;;;;;;;;;5018716;28;20499;-67
2022/03/01 03:39:19;;;;;;;9.53;5.03;;;;;;;;;;5018613;28;20482;-67
2022/03/01 03:41:47;;;;;;;7.03;4.83;;;;;;;;;;5019341;28;20527;-67
2022/03/01 03:44:15;;;;;;;8.43;5.17;;;;;;;;;;5036412;28;20513;-67
2022/03/01 03:46:43;;;;;;;8.53;4.97;;;;;;;;;;5037375;28;20462;-67
2022/03/01 03:49:13;;;;;;;9.77;5.53;;;;;;;;;;5043888;28;20498;-67
2022/03/01 03:51:41;;;;;;;8.83;4.83;;;;;;;;;;5038426;28;20525;-67
2022/03/01 03:54:09;;;;;;;12.13;6.07;;;;;;;;;;5038052;28;20469;-67
2022/03/01 03:56:38;;;;;;;6.30;4.90;;;;;;;;;;5038160;28;21055;-67
2022/03/01 03:59:07;;;;;;;7.60;5.20;;;;;;;;;;5038307;28;20473;-67
2022/03/01 04:01:35;;;;;;;10.87;5.57;;;;;;;;;;5030530;28;20543;-67
2022/03/01 04:04:04;;;;;;;6.87;4.73;;;;;;;;;;5018372;28;20889;-67
2022/03/01 04:06:33;;;;;;;5.87;4.77;;;;;;;;;;5018104;28;20898;-67
2022/03/01 04:09:02;;;;;;;7.10;4.77;;;;;;;;;;5017812;28;20977;-67
2022/03/01 04:11:29;;;;;;;9.37;5.53;;;;;;;;;;5017704;28;20502;-67
2022/03/01 04:14:00;;;;;;;7.33;4.90;;;;;;;;;;5018073;28;21901;-67
2022/03/01 04:16:28;;;;;;;10.47;5.40;;;;;;;;;;5024687;28;20493;-67
2022/03/01 04:18:57;;;;;;;6.70;5.27;;;;;;;;;;5037822;28;20945;-67
2022/03/01 04:21:25;;;;;;;8.77;5.10;;;;;;;;;;5038161;28;20238;-67
2022/03/01 04:23:54;;;;;;;10.37;6.10;;;;;;;;;;5037615;28;20242;-68
2022/03/01 04:26:23;;;;;;;8.83;5.43;;;;;;;;;;5032419;28;20243;-68
2022/03/01 04:28:51;;;;;;;7.23;4.83;;;;;;;;;;5027770;28;20665;-68
2022/03/01 04:31:19;;;;;;;11.37;5.90;;;;;;;;;;5032793;28;20253;-68
2022/03/01 04:33:47;;;;;;;7.03;5.70;;;;;;;;;;5029207;28;20206;-68
2022/03/01 04:36:15;;;;;;;9.93;5.17;;;;;;;;;;5027240;28;20243;-68
2022/03/01 04:38:43;;;;;;;9.70;5.47;;;;;;;;;;5032791;28;20286;-68
2022/03/01 04:41:13;;;;;;;10.13;5.50;;;;;;;;;;5032369;28;20481;-68
2022/03/01 04:43:41;;;;;;;6.23;5.40;;;;;;;;;;5032754;28;20885;-68
2022/03/01 04:46:10;;;;;;;8.27;5.87;;;;;;;;;;5031781;28;20561;-68
2022/03/01 04:48:38;;;;;;;8.60;5.47;;;;;;;;;;5030315;28;20445;-68
2022/03/01 04:51:06;;;;;;;7.87;5.57;;;;;;;;;;5028710;28;20474;-68
2022/03/01 04:53:35;;;;;;;8.53;5.20;;;;;;;;;;5027962;28;20439;-68
2022/03/01 04:56:04;;;;;;;8.87;4.80;;;;;;;;;;5028177;28;20966;-67
2022/03/01 04:58:33;;;;;;;11.47;5.93;;;;;;;;;;5033987;28;20485;-67
2022/03/01 05:01:01;;;;;;;10.40;5.90;;;;;;;;;;5030262;28;20610;-67
2022/03/01 05:03:31;;;;;;;10.40;6.17;;;;;;;;;;5032919;28;20443;-67
2022/03/01 05:05:59;;;;;;;7.30;5.23;;;;;;;;;;5033013;28;20486;-68
2022/03/01 05:08:30;;;;;;;9.67;6.17;;;;;;;;;;5030458;28;20462;-68
2022/03/01 05:10:58;;;;;;;8.60;5.73;;;;;;;;;;5030342;28;20903;-68
2022/03/01 05:13:26;;;;;;;8.20;5.40;;;;;;;;;;5032947;28;20517;-68
2022/03/01 05:15:56;;;;;;;11.50;5.63;;;;;;;;;;5034006;28;20516;-68
2022/03/01 05:18:24;;;;;;;8.67;5.90;;;;;;;;;;5034795;28;20513;-68
2022/03/01 05:20:52;;;;;;;9.97;5.77;;;;;;;;;;5031165;28;20466;-68
2022/03/01 05:23:20;;;;;;;9.83;6.13;;;;;;;;;;5032327;28;20510;-68
2022/03/01 05:25:49;;;;;;;9.00;6.17;;;;;;;;;;5038338;28;20506;-68
2022/03/01 05:28:17;;;;;;;7.50;5.23;;;;;;;;;;5035285;28;20867;-68
2022/03/01 05:30:45;;;;;;;9.77;6.27;;;;;;;;;;5040533;28;20871;-68
2022/03/01 05:33:14;;;;;;;9.13;5.43;;;;;;;;;;5025567;28;20482;-68
2022/03/01 05:35:44;;;;;;;6.43;5.30;;;;;;;;;;5037224;28;20957;-67
2022/03/01 05:38:12;;;;;;;10.63;6.40;;;;;;;;;;5039336;28;20445;-68
2022/03/01 05:40:41;;;;;;;7.17;5.37;;;;;;;;;;5038953;28;20444;-67
2022/03/01 05:43:09;;;;;;;11.23;6.23;;;;;;;;;;5038074;28;20477;-68
2022/03/01 05:45:37;;;;;;;9.33;6.43;;;;;;;;;;5039167;28;20557;-67
2022/03/01 05:48:05;;;;;;;10.37;6.30;;;;;;;;;;5037971;28;20520;-68
2022/03/01 05:50:35;;;;;;;13.37;7.63;;;;;;;;;;5035409;28;20447;-67
2022/03/01 05:53:03;;;;;;;10.07;7.13;;;;;;;;;;5039516;28;20502;-68
2022/03/01 05:55:31;;;;;;;11.83;5.93;;;;;;;;;;5039340;28;20482;-68
2022/03/01 05:58:01;;;;;;;12.83;6.40;;;;;;;;;;5037965;28;20434;-68
2022/03/01 06:00:29;;;;;;;8.70;7.17;;;;;;;;;;5038277;28;20477;-68
2022/03/01 06:02:57;;;;;;;10.67;6.47;;;;;;;;;;5038826;28;20926;-68
2022/03/01 06:05:27;;;;;;;13.37;7.43;;;;;;;;;;5037552;28;20474;-68
2022/03/01 06:07:57;;;;;;;12.27;7.20;;;;;;;;;;5034805;28;20477;-68
2022/03/01 06:10:25;;;;;;;26.23;11.80;;;;;;;;;;5038981;28;20496;-68
2022/03/01 06:12:53;;;;;;;13.03;8.50;;;;;;;;;;5038682;28;20558;-68
2022/03/01 06:18:49;;;;;;;18.70;8.27;;;;;;;;;;5036306;28;20225;-67
2022/03/01 06:21:17;;;;;;;15.73;7.73;;;;;;;;;;5040284;28;20474;-67
2022/03/01 06:23:48;;;;;;;15.93;8.13;;;;;;;;;;5039604;28;20828;-67
2022/03/01 06:26:16;;;;;;;19.67;7.90;;;;;;;;;;5039688;28;20569;-67
2022/03/01 06:28:44;;;;;;;13.33;7.80;;;;;;;;;;5039983;28;20466;-67
2022/03/01 06:31:12;;;;;;;11.40;6.37;;;;;;;;;;5040031;28;20518;-66
2022/03/01 06:33:40;;;;;;;11.63;7.10;;;;;;;;;;5039113;28;20529;-67
2022/03/01 06:36:08;;;;;;;14.07;7.97;;;;;;;;;;5039856;28;20498;-66
2022/03/01 06:38:36;;;;;;;12.33;7.17;;;;;;;;;;5039565;28;20473;-66
2022/03/01 06:41:06;;;;;;;9.37;6.93;;;;;;;;;;5036390;28;20477;-65
2022/03/01 06:43:34;;;;;;;10.60;7.03;;;;;;;;;;5036004;28;20473;-65
2022/03/01 06:46:02;;;;;;;10.23;6.70;;;;;;;;;;5038700;28;20564;-66
2022/03/01 06:48:30;;;;;;;12.33;7.50;;;;;;;;;;5038645;28;20442;-65
2022/03/01 06:50:58;;;;;;;12.30;7.00;;;;;;;;;;5037558;28;20864;-65
2022/03/01 06:53:26;;;;;;;10.90;7.77;;;;;;;;;;5036104;28;20441;-67
2022/03/01 06:55:54;;;;;;;11.37;7.27;;;;;;;;;;5038953;28;20502;-65
2022/03/01 06:58:23;;;;;;;11.80;7.93;;;;;;;;;;5037030;28;20489;-66
2022/03/01 07:00:51;;;;;;;10.83;7.40;;;;;;;;;;5024761;28;20489;-66
2022/03/01 07:03:20;;;;;;;11.60;7.43;;;;;;;;;;5028780;28;20446;-66
2022/03/01 07:05:49;;;;;;;10.40;6.63;;;;;;;;;;5022738;28;20487;-66
2022/03/01 07:08:20;;;;;;;11.27;6.60;;;;;;;;;;5035346;28;20454;-66
2022/03/01 07:10:54;;;;;;;13.40;7.33;;;;;;;;;;5038634;28;20486;-67
2022/03/01 07:13:26;;;;;;;14.27;7.23;;;;;;;;;;5038606;28;20875;-67
2022/03/01 07:15:54;;;;;;;10.90;7.63;;;;;;;;;;5038712;28;21027;-66
2022/03/01 07:18:27;;;;;;;14.03;7.67;;;;;;;;;;5038587;28;20446;-66
2022/03/01 07:20:55;;;;;;;9.33;7.03;;;;;;;;;;5038911;28;20446;-66
2022/03/01 07:23:23;;;;;;;16.40;7.77;;;;;;;;;;5038336;28;20882;-66
2022/03/01 07:25:51;;;;;;;11.73;7.40;;;;;;;;;;5029868;28;20519;-66
2022/03/01 07:28:19;;;;;;;17.57;7.40;;;;;;;;;;5019180;28;20471;-66
2022/03/01 07:30:49;;;;;;;12.60;7.60;;;;;;;;;;5018728;28;20454;-66
2022/03/01 07:33:17;;;;;;;11.73;6.80;;;;;;;;;;5018131;28;20511;-67
2022/03/01 07:35:46;;;;;;;14.03;8.30;;;;;;;;;;5018447;28;20455;-66
2022/03/01 07:38:14;;;;;;;13.67;7.40;;;;;;;;;;5018264;28;20847;-66
2022/03/01 07:40:43;;;;;;;10.87;7.67;;;;;;;;;;5018359;28;20455;-66
2022/03/01 07:43:11;;;;;;;10.00;6.73;;;;;;;;;;5030563;28;20438;-66
2022/03/01 07:45:39;;;;;;;13.07;7.83;;;;;;;;;;5028869;28;20566;-66
2022/03/01 07:48:10;;;;;;;11.67;7.80;;;;;;;;;;5031810;28;20481;-66
2022/03/01 07:50:38;;;;;;;20.33;8.67;;;;;;;;;;5037083;28;20844;-66
2022/03/01 07:53:06;;;;;;;13.87;7.43;;;;;;;;;;5036413;28;20462;-66
2022/03/01 07:55:35;;;;;;;12.77;7.40;;;;;;;;;;5037831;28;20962;-66
2022/03/01 07:58:04;;;;;;;12.93;7.53;;;;;;;;;;5037720;28;20442;-66
2022/03/01 08:00:32;;;;;;;12.30;6.67;;;;;;;;;;5037864;28;20820;-67
2022/03/01 08:03:01;;;;;;;12.90;7.50;;;;;;;;;;5020762;28;20447;-67
2022/03/01 08:05:30;;;;;;;14.43;7.50;;;;;;;;;;5018157;28;20471;-67
2022/03/01 08:07:59;;;;;;;13.77;7.90;;;;;;;;;;5017591;28;20886;-66
2022/03/01 08:10:27;;;;;;;13.20;7.73;;;;;;;;;;5017989;28;20517;-66
2022/03/01 08:12:57;;;;;;;14.47;7.97;;;;;;;;;;5017375;28;20895;-66
2022/03/01 08:15:26;;;;;;;13.07;7.93;;;;;;;;;;5018215;28;20464;-66
2022/03/01 08:17:55;;;;;;;10.57;8.07;;;;;;;;;;5036517;28;20468;-66
2022/03/01 08:20:23;;;;;;;13.83;8.20;;;;;;;;;;5037552;28;20478;-67
2022/03/01 08:22:53;;;;;;;13.90;8.07;;;;;;;;;;5037319;28;20953;-66
2022/03/01 08:25:21;;;;;;;13.37;8.07;;;;;;;;;;5037630;28;20498;-66
2022/03/01 08:27:49;;;;;;;12.97;8.07;;;;;;;;;;5037782;28;20482;-66
2022/03/01 08:30:18;;;;;;;10.87;7.57;;;;;;;;;;5037631;28;20450;-67
2022/03/01 08:32:46;;;;;;;13.47;8.03;;;;;;;;;;5037830;28;20450;-66
2022/03/01 08:35:14;;;;;;;17.70;8.50;;;;;;;;;;5037449;28;20477;-66
2022/03/01 08:37:45;;;;;;;14.00;7.70;;;;;;;;;;5036940;28;20468;-66
2022/03/01 08:40:18;;;;;;;11.50;7.13;;;;;;;;;;5037322;28;20435;-66
2022/03/01 08:42:46;;;;;;;14.70;8.60;;;;;;;;;;5028606;28;20204;-66
2022/03/01 08:45:14;;;;;;;13.33;7.97;;;;;;;;;;5017491;28;20228;-67
2022/03/01 08:47:43;;;;;;;15.10;8.30;;;;;;;;;;5017545;28;20247;-66
2022/03/01 08:50:11;;;;;;;13.70;7.20;;;;;;;;;;5017560;28;20447;-66
2022/03/01 08:53:00;;;;;;;14.77;8.80;;;;;;;;;;5031297;28;20446;-67
2022/03/01 08:55:29;;;;;;;12.27;8.17;;;;;;;;;;5036935;28;20489;-67
2022/03/01 08:57:58;;;;;;;16.00;8.23;;;;;;;;;;5036003;28;20438;-66
2022/03/01 09:00:26;;;;;;;11.77;8.23;;;;;;;;;;5023261;28;20470;-66
2022/03/01 09:02:55;;;;;;;14.23;8.50;;;;;;;;;;5024721;28;20446;-67
2022/03/01 09:05:24;;;;;;;13.67;8.47;;;;;;;;;;5036924;28;20319;-66
2022/03/01 09:07:52;;;;;;;13.57;11.43;;;;;;;;;;5034662;28;20497;-66
2022/03/01 09:10:21;;;;;;;12.83;8.40;;;;;;;;;;5034667;28;20218;-66
2022/03/01 09:12:53;;;;;;;12.47;8.10;;;;;;;;;;5037069;28;20539;-66
2022/03/01 09:15:21;;;;;;;12.80;8.87;;;;;;;;;;5036980;28;20873;-66
2022/03/01 09:17:50;;;;;;;13.07;8.00;;;;;;;;;;5037102;28;20868;-66
2022/03/01 09:20:18;;;;;;;14.73;8.23;;;;;;;;;;5037758;28;20496;-67
2022/03/01 09:22:46;;;;;;;10.07;7.57;;;;;;;;;;5036802;28;20230;-66
2022/03/01 09:25:14;;;;;;;12.30;8.47;;;;;;;;;;5033614;28;20970;-67
2022/03/01 09:27:44;;;;;;;15.70;9.20;;;;;;;;;;5017440;28;20271;-67
2022/03/01 09:30:14;;;;;;;13.63;7.87;;;;;;;;;;5017395;28;20208;-66
2022/03/01 09:32:42;;;;;;;10.73;7.27;;;;;;;;;;5017417;28;20212;-67
2022/03/01 09:35:11;;;;;;;11.17;8.00;;;;;;;;;;5017300;28;20475;-67
2022/03/01 09:37:41;;;;;;;14.47;8.33;;;;;;;;;;5016907;28;20568;-67
2022/03/01 09:40:11;;;;;;;11.40;7.60;;;;;;;;;;5017028;28;20622;-66
2022/03/01 09:42:40;;;;;;;15.03;8.47;;;;;;;;;;5025637;28;20446;-67
2022/03/01 09:45:09;;;;;;;16.13;8.60;;;;;;;;;;5032511;28;20450;-67
2022/03/01 09:47:39;;;;;;;14.90;8.40;;;;;;;;;;5016928;28;20839;-66
2022/03/01 09:50:08;;;;;;;14.83;8.40;;;;;;;;;;5018303;28;20219;-66
2022/03/01 09:52:36;;;;;;;14.00;7.50;;;;;;;;;;5017622;28;20554;-67
2022/03/01 09:55:05;;;;;;;12.30;7.53;;;;;;;;;;5016868;28;20261;-67
2022/03/01 09:57:36;;;;;;;14.53;8.37;;;;;;;;;;5016887;28;20204;-67
2022/03/01 10:00:04;;;;;;;12.73;8.23;;;;;;;;;;5017042;28;20236;-67
2022/03/01 10:02:33;;;;;;;16.10;8.47;;;;;;;;;;5033876;28;20207;-67
2022/03/01 10:05:04;;;;;;;17.57;8.03;;;;;;;;;;5036446;28;20682;-67
2022/03/01 10:07:32;;;;;;;12.47;7.77;;;;;;;;;;5023869;28;20286;-67
2022/03/01 10:10:04;;;;;;;14.73;9.07;;;;;;;;;;5039283;28;20204;-67
2022/03/01 10:12:32;;;;;;;15.57;8.03;;;;;;;;;;5028309;28;20232;-65
2022/03/01 10:15:03;;;;;;;16.40;8.87;;;;;;;;;;5019990;28;20239;-68
2022/03/01 10:17:34;;;;;;;12.97;8.43;;;;;;;;;;5035726;28;20677;-66
2022/03/01 10:20:08;;;;;;;14.17;8.27;;;;;;;;;;5040251;28;20218;-65
2022/03/01 10:22:40;;;;;;;15.63;9.70;;;;;;;;;;5040418;28;20207;-65
2022/03/01 10:25:09;;;;;;;25.97;14.57;;;;;;;;;;5037942;28;20215;-65
2022/03/01 10:27:37;;;;;;;12.53;7.77;;;;;;;;;;5020129;28;20228;-65
2022/03/01 10:30:07;;;;;;;13.83;7.47;;;;;;;;;;5020005;28;20219;-65
2022/03/01 10:32:35;;;;;;;14.20;7.50;;;;;;;;;;5020466;28;20240;-66
2022/03/01 10:35:11;;;;;;;11.77;8.13;;;;;;;;;;5027400;28;20203;-65
2022/03/01 10:37:40;;;;;;;12.63;7.47;;;;;;;;;;5038902;28;20207;-67
2022/03/01 10:40:16;;;;;;;12.63;7.20;;;;;;;;;;5039760;28;20211;-64
2022/03/01 10:42:46;;;;;;;12.50;6.90;;;;;;;;;;5039460;28;20207;-67
2022/03/01 10:45:14;;;;;;;10.30;7.80;;;;;;;;;;5039353;28;20911;-66
2022/03/01 10:47:52;;;;;;;9.00;7.47;;;;;;;;;;5039338;28;20227;-67
2022/03/01 10:50:22;;;;;;;12.50;8.30;;;;;;;;;;5039302;28;20243;-68
2022/03/01 10:52:50;;;;;;;14.30;8.33;;;;;;;;;;5038817;28;20204;-67
2022/03/01 10:55:22;;;;;;;9.13;6.87;;;;;;;;;;5039123;28;20686;-66
2022/03/01 10:58:01;;;;;;;9.97;6.50;;;;;;;;;;5039045;28;20207;-68
2022/03/01 11:00:29;;;;;;;9.53;6.93;;;;;;;;;;5038645;28;20286;-67
2022/03/01 11:02:57;;;;;;;11.10;7.00;;;;;;;;;;5025535;28;20291;-66
2022/03/01 11:05:27;;;;;;;12.93;7.23;;;;;;;;;;5019495;28;20264;-68
2022/03/01 11:08:16;;;;;;;9.90;7.17;;;;;;;;;;5030465;28;20224;-67
2022/03/01 11:10:45;;;;;;;13.23;7.00;;;;;;;;;;5037425;28;20243;-67
2022/03/01 11:13:14;;;;;;;12.63;7.93;;;;;;;;;;5018907;28;20278;-68
2022/03/01 11:15:52;;;;;;;12.07;7.53;;;;;;;;;;5019596;28;20240;-65
2022/03/01 11:18:33;;;;;;;16.40;6.43;;;;;;;;;;5038848;28;20280;-69
2022/03/01 11:21:04;;;;;;;12.30;6.87;;;;;;;;;;5038695;28;20203;-70
2022/03/01 11:23:32;;;;;;;10.00;6.77;;;;;;;;;;5038651;28;20211;-69
2022/03/01 11:26:08;;;;;;;12.53;7.23;;;;;;;;;;5029575;28;20255;-68
2022/03/01 11:28:40;;;;;;;10.20;7.07;;;;;;;;;;5029199;28;20255;-68
2022/03/01 11:31:21;;;;;;;9.83;6.73;;;;;;;;;;5024377;28;20258;-68
2022/03/01 11:33:57;;;;;;;8.80;6.20;;;;;;;;;;5032147;28;20203;-70
2022/03/01 11:36:28;;;;;;;6.97;5.83;;;;;;;;;;5032825;28;20262;-71
2022/03/01 11:38:56;;;;;;;10.20;6.10;;;;;;;;;;5017398;28;20266;-70
2022/03/01 11:41:24;;;;;;;11.97;6.47;;;;;;;;;;5036852;28;20235;-71
2022/03/01 11:43:53;;;;;;;9.67;6.50;;;;;;;;;;5038746;28;20207;-71
2022/03/01 11:46:28;;;;;;;7.10;6.00;;;;;;;;;;5038397;28;20262;-71
2022/03/01 11:48:58;;;;;;;10.50;6.70;;;;;;;;;;5038168;28;20227;-72
2022/03/01 11:51:34;;;;;;;8.83;5.53;;;;;;;;;;5038143;28;20547;-71
2022/03/01 11:54:04;;;;;;;11.37;6.63;;;;;;;;;;5037916;28;20290;-71
2022/03/01 11:56:32;;;;;;;9.20;5.93;;;;;;;;;;5037895;28;20254;-71
2022/03/01 11:59:04;;;;;;;9.50;6.10;;;;;;;;;;5038005;28;20290;-68
2022/03/01 12:01:33;;;;;;;8.57;5.93;;;;;;;;;;5032345;28;20295;-69
2022/03/01 12:04:02;;;;;;;8.17;5.90;;;;;;;;;;5037510;28;20216;-69
2022/03/01 12:06:31;;;;;;;8.60;6.10;;;;;;;;;;5037577;28;20225;-69
2022/03/01 12:09:01;;;;;;;10.67;6.00;;;;;;;;;;5036657;28;20251;-69
2022/03/01 12:11:34;;;;;;;8.90;6.30;;;;;;;;;;5036257;28;20231;-68
2022/03/01 12:14:04;;;;;;;10.87;6.40;;;;;;;;;;5034461;28;20203;-69
2022/03/01 12:16:33;;;;;;;9.97;5.33;;;;;;;;;;5034195;28;20223;-68
2022/03/01 12:19:09;;;;;;;7.73;5.60;;;;;;;;;;5032857;28;20514;-68
2022/03/01 12:21:37;;;;;;;8.00;6.13;;;;;;;;;;5037358;28;20690;-68
2022/03/01 12:24:08;;;;;;;7.57;5.50;;;;;;;;;;5037274;28;20704;-67
2022/03/01 12:26:43;;;;;;;7.47;5.63;;;;;;;;;;5026161;28;20269;-67
2022/03/01 12:29:11;;;;;;;12.00;5.87;;;;;;;;;;5028971;28;20262;-70
2022/03/01 12:31:39;;;;;;;7.93;5.23;;;;;;;;;;5017197;28;20212;-68
2022/03/01 12:34:08;;;;;;;7.97;5.70;;;;;;;;;;5018343;28;20668;-69
2022/03/01 12:36:37;;;;;;;9.67;5.73;;;;;;;;;;5030765;28;20223;-68
2022/03/01 12:39:08;;;;;;;13.73;5.50;;;;;;;;;;5019883;28;20219;-68
2022/03/01 12:41:41;;;;;;;9.13;5.67;;;;;;;;;;5017646;28;20686;-70
2022/03/01 12:44:10;;;;;;;9.43;5.70;;;;;;;;;;5017630;28;20204;-70
2022/03/01 12:46:38;;;;;;;7.70;5.53;;;;;;;;;;5017229;28;20256;-69
2022/03/01 12:49:08;;;;;;;9.43;5.30;;;;;;;;;;5016951;28;20581;-69
2022/03/01 12:51:36;;;;;;;9.50;5.73;;;;;;;;;;5025689;28;20238;-69
2022/03/01 12:54:09;;;;;;;9.37;5.77;;;;;;;;;;5032451;28;20660;-71
2022/03/01 12:56:39;;;;;;;10.03;5.93;;;;;;;;;;5034186;28;20238;-72
2022/03/01 12:59:09;;;;;;;7.97;5.47;;;;;;;;;;5037692;28;20240;-72
2022/03/01 13:01:38;;;;;;;7.50;5.50;;;;;;;;;;5036470;28;20200;-74
2022/03/01 13:04:07;;;;;;;7.77;5.87;;;;;;;;;;5031627;28;20199;-71
2022/03/01 13:06:36;;;;;;;11.80;6.87;;;;;;;;;;5034227;28;20250;-72
2022/03/01 13:09:04;;;;;;;13.40;6.67;;;;;;;;;;5032089;28;20251;-70
2022/03/01 13:11:33;;;;;;;10.07;6.33;;;;;;;;;;5036016;28;20235;-71
2022/03/01 13:14:04;;;;;;;10.50;6.27;;;;;;;;;;5034537;28;20283;-71
2022/03/01 13:16:33;;;;;;;17.70;6.30;;;;;;;;;;5033323;28;20260;-71
2022/03/01 13:19:02;;;;;;;10.87;5.93;;;;;;;;;;5036810;28;20199;-71
2022/03/01 13:21:31;;;;;;;8.37;5.53;;;;;;;;;;5034281;28;20234;-71
2022/03/01 13:24:02;;;;;;;13.57;6.40;;;;;;;;;;5032971;28;20378;-71
2022/03/01 13:26:30;;;;;;;14.13;6.70;;;;;;;;;;5036507;28;20219;-71
2022/03/01 13:29:09;;;;;;;9.13;6.40;;;;;;;;;;5025942;28;20287;-72
2022/03/01 13:31:37;;;;;;;11.77;7.13;;;;;;;;;;5018235;28;20239;-70
2022/03/01 13:34:05;;;;;;;9.63;6.13;;;;;;;;;;5031441;28;20227;-71
2022/03/01 13:36:34;;;;;;;11.83;6.03;;;;;;;;;;5036392;28;20246;-71
2022/03/01 13:39:04;;;;;;;9.03;5.70;;;;;;;;;;5034545;28;20231;-71
2022/03/01 13:41:33;;;;;;;11.73;6.67;;;;;;;;;;5034573;28;20659;-73
2022/03/01 13:44:16;;;;;;;11.60;6.50;;;;;;;;;;5037041;28;20563;-74
2022/03/01 13:47:02;;;;;;;11.60;7.10;;;;;;;;;;5040234;28;20234;-72
2022/03/01 13:49:32;;;;;;;11.10;6.90;;;;;;;;;;5039398;28;20643;-73
2022/03/01 13:52:10;;;;;;;10.87;6.50;;;;;;;;;;5040091;28;20698;-73
2022/03/01 13:54:39;;;;;;;12.50;6.30;;;;;;;;;;5023298;28;20651;-72
2022/03/01 13:57:07;;;;;;;14.63;6.60;;;;;;;;;;5020556;28;20311;-72
2022/03/01 13:59:37;;;;;;;11.50;6.67;;;;;;;;;;5020378;28;20236;-73
2022/03/01 14:02:05;;;;;;;11.63;6.47;;;;;;;;;;5021326;28;20204;-73
2022/03/01 14:04:33;;;;;;;13.80;7.07;;;;;;;;;;5018852;28;20243;-74
2022/03/01 14:07:01;;;;;;;9.70;6.27;;;;;;;;;;5018640;28;20259;-74
2022/03/01 14:09:29;;;;;;;11.80;6.83;;;;;;;;;;5018331;28;20231;-74
2022/03/01 14:12:05;;;;;;;11.33;5.93;;;;;;;;;;5025126;28;20232;-74
2022/03/01 14:14:33;;;;;;;13.93;6.17;;;;;;;;;;5039395;28;20207;-74
2022/03/01 14:17:02;;;;;;;9.13;6.23;;;;;;;;;;5039370;28;20282;-74
2022/03/01 14:19:30;;;;;;;10.17;6.33;;;;;;;;;;5040150;28;20287;-74
2022/03/01 14:21:58;;;;;;;7.80;5.83;;;;;;;;;;5039728;28;20246;-74
2022/03/01 14:24:26;;;;;;;11.97;6.10;;;;;;;;;;5033383;28;20232;-74
2022/03/01 14:26:54;;;;;;;9.97;5.83;;;;;;;;;;5030777;28;20251;-73
2022/03/01 14:29:22;;;;;;;11.30;6.20;;;;;;;;;;5019792;28;20794;-73
2022/03/01 14:31:50;;;;;;;8.90;6.00;;;;;;;;;;5019986;28;20276;-73
2022/03/01 14:34:20;;;;;;;9.13;6.00;;;;;;;;;;5019824;28;20282;-73
2022/03/01 14:36:48;;;;;;;10.37;6.27;;;;;;;;;;5019811;28;20734;-73
2022/03/01 14:39:17;;;;;;;12.67;6.47;;;;;;;;;;5019620;28;20240;-72
2022/03/01 14:41:46;;;;;;;11.83;7.00;;;;;;;;;;5020093;28;20239;-73
2022/03/01 14:44:16;;;;;;;9.10;5.50;;;;;;;;;;5019913;28;20243;-73
2022/03/01 14:46:44;;;;;;;12.40;6.67;;;;;;;;;;5024186;28;20227;-73
2022/03/01 14:49:12;;;;;;;9.50;6.50;;;;;;;;;;5038377;28;20208;-71
2022/03/01 14:51:43;;;;;;;10.40;6.27;;;;;;;;;;5035884;28;20231;-71
2022/03/01 14:54:12;;;;;;;12.60;6.80;;;;;;;;;;5038467;28;20200;-71